Impacts METAR Board
IDs:

KCVG - Cincinnati Intl, KY, US

Updated at: 0300 UTC 06 Dec 2019
Potential Impact None Slight Moderate High
Time 05/15Z 05/16Z 05/17Z 05/18Z 05/19Z 05/20Z 05/21Z 05/22Z 05/23Z 06/00Z 06/01Z 06/02Z 06/03Z
Temp38 41 44 45 47 48 49 45 44 43 42 39 38
Dewpt31 27 27 28 29 28 25 27 28 27 27 27 27
Altim30.09 30.11 30.12 30.10 30.08 30.07 30.07 30.07 30.08 30.07 30.08 30.07 30.07
VIS10 10 10 10 10 10 10 10 10 10 10 10 10
CIG-- -- -- -- -- -- -- -- -- -- -- -- --
CoverCLRCLRCLRCLRCLRCLRCLRFEWFEWFEWFEWFEWCLR
FltCatVFRVFRVFRVFRVFRVFRVFRVFRVFRVFRVFRVFRVFR
WX--------------------------
WDir20018025001700190180160160170180180
WSpd4 4 7 4 6 6 6 6 4 4 4 6 7
WGst-- -- -- -- -- -- -- -- -- -- -- -- --
Raw hourly METARs
KCVG 051452Z 20004KT 10SM CLR 03/M01 A3009 RMK AO2 SLP193 T00331006 53017
KCVG 051552Z 18004KT 10SM CLR 05/M03 A3011 RMK AO2 SLP199 T00501028
KCVG 051652Z 25007KT 10SM CLR 07/M03 A3012 RMK AO2 SLP200 T00671028
KCVG 051752Z VRB04KT 10SM CLR 07/M02 A3010 RMK AO2 SLP194 T00721022 10072 21028 50001
KCVG 051852Z 17006KT 10SM CLR 08/M02 A3008 RMK AO2 SLP187 T00831017
KCVG 051952Z VRB06KT 10SM CLR 09/M02 A3007 RMK AO2 SLP185 T00891022
KCVG 052052Z 19006KT 10SM CLR 09/M04 A3007 RMK AO2 SLP185 T00941039 56009
KCVG 052152Z 18006KT 10SM FEW250 07/M03 A3007 RMK AO2 SLP186 T00721028
KCVG 052252Z 16004KT 10SM FEW250 07/M02 A3008 RMK AO2 SLP188 T00671022
KCVG 052352Z 16004KT 10SM FEW250 06/M03 A3007 RMK AO2 SLP187 T00611028 10100 20050 50001
KCVG 060052Z 17004KT 10SM FEW250 06/M03 A3008 RMK AO2 SLP191 T00561028
KCVG 060152Z 18006KT 10SM FEW200 04/M03 A3007 RMK AO2 SLP187 T00391028
KCVG 060252Z 18007KT 10SM CLR 03/M03 A3007 RMK AO2 SLP186 T00331028 58001



Page loaded:  03:52 UTC  |   07:52 PM Pacific  |   08:52 PM Mountain  |   09:52 PM Central  |   10:52 PM Eastern

 

ADVISORIES

FORECASTS

FORECASTS

OBSERVATIONS

USER TOOLS

ABOUT US